createdAt,value
2022-09-28T00:00:02.310Z,99.90
2022-09-28T00:02:39.271Z,99.90
2022-09-28T00:05:06.196Z,99.90
2022-09-28T00:07:32.779Z,99.90
2022-09-28T00:09:59.936Z,99.90
2022-09-28T00:12:27.942Z,99.90
2022-09-28T00:14:54.668Z,99.90
2022-09-28T00:17:22.962Z,99.90
2022-09-28T00:19:49.682Z,99.90
2022-09-28T00:22:16.363Z,99.90
2022-09-28T00:24:43.183Z,99.90
2022-09-28T00:27:09.794Z,99.90
2022-09-28T00:29:37.422Z,99.90
2022-09-28T00:32:09.593Z,99.90
2022-09-28T00:34:37.763Z,99.90
2022-09-28T00:37:05.065Z,99.90
2022-09-28T00:39:31.875Z,99.90
2022-09-28T00:41:58.778Z,99.90
2022-09-28T00:44:25.443Z,99.90
2022-09-28T00:47:01.540Z,99.90
2022-09-28T00:49:38.583Z,99.90
2022-09-28T00:52:06.871Z,99.90
2022-09-28T00:54:34.266Z,99.90
2022-09-28T00:57:01.697Z,99.90
2022-09-28T00:59:29.342Z,99.90
2022-09-28T01:01:56.086Z,99.90
2022-09-28T01:04:26.898Z,99.90
2022-09-28T01:06:56.980Z,99.90
2022-09-28T01:09:25.048Z,99.90
2022-09-28T01:11:52.070Z,99.90
2022-09-28T01:14:19.528Z,99.90
2022-09-28T01:16:55.055Z,99.90
2022-09-28T01:19:59.313Z,99.90
2022-09-28T01:22:26.013Z,99.90
2022-09-28T01:25:04.945Z,99.90
2022-09-28T01:27:34.150Z,99.90
2022-09-28T01:30:05.067Z,99.90
2022-09-28T01:32:38.170Z,99.90
2022-09-28T01:35:09.898Z,99.90
2022-09-28T01:37:41.705Z,99.90
2022-09-28T01:40:10.040Z,99.90
2022-09-28T01:42:38.789Z,99.90
2022-09-28T01:45:08.162Z,99.90
2022-09-28T01:47:37.685Z,99.90
2022-09-28T01:50:08.064Z,99.90
2022-09-28T01:52:40.559Z,99.90
2022-09-28T01:55:14.704Z,99.90
2022-09-28T01:57:45.549Z,99.90
2022-09-28T02:00:14.920Z,99.90
2022-09-28T02:02:48.496Z,99.90
2022-09-28T02:05:20.544Z,99.90
2022-09-28T02:07:50.214Z,99.90
2022-09-28T02:10:19.785Z,99.90
2022-09-28T02:12:48.692Z,99.90
2022-09-28T02:15:20.605Z,99.90
2022-09-28T02:17:47.547Z,99.90
2022-09-28T02:20:16.107Z,99.90
2022-09-28T02:22:48.475Z,99.90
2022-09-28T02:25:28.581Z,99.90
2022-09-28T02:28:00.379Z,99.90
2022-09-28T02:30:29.437Z,99.90
2022-09-28T02:32:57.869Z,99.90
2022-09-28T02:35:24.733Z,99.90
2022-09-28T02:37:51.510Z,99.90
2022-09-28T02:40:20.277Z,99.90
2022-09-28T02:42:56.220Z,99.90
2022-09-28T02:45:23.066Z,99.90
2022-09-28T02:48:02.969Z,99.90
2022-09-28T02:50:30.411Z,99.90
2022-09-28T02:53:07.423Z,99.90
2022-09-28T02:55:42.903Z,99.90
2022-09-28T02:58:15.532Z,99.90
2022-09-28T03:00:51.434Z,99.90
2022-09-28T03:03:21.087Z,99.90
2022-09-28T03:06:00.349Z,99.90
2022-09-28T03:08:36.302Z,99.90
2022-09-28T03:11:09.301Z,99.90
2022-09-28T03:13:37.531Z,99.90
2022-09-28T03:16:08.629Z,99.90
2022-09-28T03:18:35.523Z,99.90
2022-09-28T03:21:03.783Z,99.90
2022-09-28T03:23:30.599Z,99.90
2022-09-28T03:25:57.492Z,99.90
2022-09-28T03:28:24.257Z,99.90
2022-09-28T03:30:50.897Z,99.90
2022-09-28T03:33:18.376Z,99.90
2022-09-28T03:35:48.859Z,99.90
2022-09-28T03:38:16.969Z,99.90
2022-09-28T03:40:44.220Z,99.90
2022-09-28T03:43:11.068Z,99.90
2022-09-28T03:45:38.027Z,99.90
2022-09-28T03:48:04.716Z,99.90
2022-09-28T03:50:33.777Z,99.90
2022-09-28T03:53:04.273Z,99.90
2022-09-28T03:55:31.094Z,99.90
2022-09-28T03:57:57.753Z,99.90
2022-09-28T04:00:24.462Z,99.90
2022-09-28T04:02:51.481Z,99.90
2022-09-28T04:05:18.172Z,99.90
2022-09-28T04:07:44.773Z,99.90
2022-09-28T04:10:11.520Z,99.90
2022-09-28T04:12:38.364Z,99.90
2022-09-28T04:15:05.850Z,99.90
2022-09-28T04:17:34.625Z,99.90
2022-09-28T04:20:07.072Z,99.90
2022-09-28T04:22:39.794Z,99.90
2022-09-28T04:25:06.592Z,99.90
2022-09-28T04:27:52.262Z,99.90
2022-09-28T04:30:19.225Z,99.90
2022-09-28T04:32:46.633Z,99.90
2022-09-28T04:35:13.505Z,99.90
2022-09-28T04:37:40.312Z,99.90
2022-09-28T04:40:07.307Z,99.90
2022-09-28T04:42:34.072Z,99.90
2022-09-28T04:45:02.171Z,99.90
2022-09-28T04:47:29.724Z,99.90
2022-09-28T04:50:22.691Z,99.90
2022-09-28T04:53:17.384Z,99.90
2022-09-28T04:55:45.103Z,99.90
2022-09-28T04:58:11.924Z,99.90
2022-09-28T05:00:39.050Z,99.90
2022-09-28T05:03:14.299Z,99.90
2022-09-28T05:06:15.278Z,99.90
2022-09-28T05:08:46.790Z,99.90
2022-09-28T05:11:14.082Z,99.90
2022-09-28T05:13:41.837Z,99.90
2022-09-28T05:16:09.399Z,99.90
2022-09-28T05:18:54.565Z,99.90
2022-09-28T05:21:21.288Z,99.90
2022-09-28T05:23:47.960Z,99.90
2022-09-28T05:26:15.028Z,99.90
2022-09-28T05:28:41.828Z,99.90
2022-09-28T05:31:29.760Z,99.90
2022-09-28T05:34:05.623Z,99.90
2022-09-28T05:36:32.640Z,99.90
2022-09-28T05:38:59.362Z,99.90
2022-09-28T05:41:26.142Z,99.90
2022-09-28T05:43:54.995Z,99.90
2022-09-28T05:46:23.728Z,99.90
2022-09-28T05:48:52.604Z,99.90
2022-09-28T05:51:19.356Z,99.90
2022-09-28T05:53:46.258Z,99.90
2022-09-28T05:56:13.632Z,99.90
2022-09-28T05:58:43.889Z,99.90
2022-09-28T06:01:11.746Z,99.90
2022-09-28T06:03:38.550Z,99.90
2022-09-28T06:06:05.242Z,99.90
2022-09-28T06:08:32.838Z,99.90
2022-09-28T06:11:18.699Z,99.90
2022-09-28T06:13:46.973Z,99.90
2022-09-28T06:16:16.958Z,99.90
2022-09-28T06:18:43.818Z,99.90
2022-09-28T06:21:42.636Z,99.90
2022-09-28T06:24:09.581Z,99.90
2022-09-28T06:26:37.072Z,99.90
2022-09-28T06:29:04.895Z,99.90
2022-09-28T06:31:31.782Z,99.90
2022-09-28T06:34:02.078Z,99.90
2022-09-28T06:36:29.337Z,99.90
2022-09-28T06:38:56.304Z,99.90
2022-09-28T06:41:24.579Z,99.90
2022-09-28T06:43:52.205Z,99.90
2022-09-28T06:46:44.841Z,99.90
2022-09-28T06:49:43.005Z,99.90
2022-09-28T06:52:10.130Z,99.90
2022-09-28T06:55:01.664Z,99.90
2022-09-28T06:57:44.730Z,99.90
2022-09-28T07:00:11.934Z,99.90
2022-09-28T07:02:38.650Z,99.90
2022-09-28T07:05:45.185Z,99.90
2022-09-28T07:08:30.458Z,99.90
2022-09-28T07:11:21.212Z,99.90
2022-09-28T07:14:17.177Z,99.90
2022-09-28T07:17:11.449Z,99.90
2022-09-28T07:19:36.458Z,99.90
2022-09-28T07:22:05.431Z,99.90
2022-09-28T07:24:32.920Z,99.90
2022-09-28T07:27:18.103Z,99.90
2022-09-28T07:30:05.105Z,99.90
2022-09-28T07:32:45.753Z,99.90
2022-09-28T07:35:22.308Z,99.90
2022-09-28T07:38:17.507Z,99.90
2022-09-28T07:41:03.096Z,99.90
2022-09-28T07:43:30.162Z,99.90
2022-09-28T07:45:57.044Z,99.90
2022-09-28T07:48:23.880Z,99.90
2022-09-28T07:51:04.074Z,99.90
2022-09-28T07:53:34.270Z,99.90
2022-09-28T07:56:33.941Z,99.90
2022-09-28T07:59:11.920Z,99.90
2022-09-28T08:01:38.600Z,99.90
2022-09-28T08:04:06.223Z,99.90
2022-09-28T08:06:34.772Z,99.90
2022-09-28T08:09:02.995Z,99.90
2022-09-28T08:11:49.946Z,99.90
2022-09-28T08:14:34.291Z,99.90
2022-09-28T08:17:23.319Z,99.90
2022-09-28T08:20:13.208Z,99.90
2022-09-28T08:22:41.174Z,99.90
2022-09-28T08:25:08.824Z,99.90
2022-09-28T08:27:36.577Z,99.90
2022-09-28T08:30:04.412Z,99.90
2022-09-28T08:32:38.995Z,99.90
2022-09-28T08:35:25.673Z,99.90
2022-09-28T08:38:09.033Z,99.90
2022-09-28T08:41:04.687Z,99.90
2022-09-28T08:43:55.810Z,99.90
2022-09-28T08:46:38.701Z,99.90
2022-09-28T08:49:43.093Z,99.90
2022-09-28T08:52:33.287Z,99.90
2022-09-28T08:55:18.998Z,99.90
2022-09-28T08:57:50.032Z,99.90
2022-09-28T09:00:23.619Z,99.90
2022-09-28T09:02:51.269Z,99.90
2022-09-28T09:05:20.701Z,99.90
2022-09-28T09:08:14.158Z,99.90
2022-09-28T09:10:42.653Z,99.90
2022-09-28T09:13:35.685Z,99.90
2022-09-28T09:16:03.599Z,99.90
2022-09-28T09:19:10.502Z,99.90
2022-09-28T09:22:00.402Z,99.90
2022-09-28T09:24:31.738Z,99.90
2022-09-28T09:27:05.508Z,99.90
2022-09-28T09:29:40.151Z,99.90
2022-09-28T09:32:06.986Z,99.90
2022-09-28T09:34:43.248Z,99.90
2022-09-28T09:37:37.593Z,99.90
2022-09-28T09:40:23.192Z,99.90
2022-09-28T09:43:12.987Z,99.90
2022-09-28T09:46:02.037Z,99.90
2022-09-28T09:48:55.674Z,99.90
2022-09-28T09:51:23.164Z,99.90
2022-09-28T09:54:00.021Z,99.90
2022-09-28T09:56:31.130Z,99.90
2022-09-28T09:59:15.016Z,99.90
2022-09-28T10:02:02.562Z,99.90
2022-09-28T10:04:46.750Z,99.90
2022-09-28T10:07:28.833Z,99.90
2022-09-28T10:09:57.345Z,99.90
2022-09-28T10:12:53.729Z,99.90
2022-09-28T10:15:28.415Z,99.90
2022-09-28T10:18:12.009Z,99.90
2022-09-28T10:20:57.712Z,99.90
2022-09-28T10:23:50.111Z,99.90
2022-09-28T10:26:25.106Z,99.90
2022-09-28T10:28:58.868Z,99.90
2022-09-28T10:31:36.417Z,99.90
2022-09-28T10:34:06.118Z,99.90
2022-09-28T10:36:38.566Z,99.90
2022-09-28T10:39:06.305Z,99.90
2022-09-28T10:41:33.080Z,99.90
2022-09-28T10:44:06.678Z,99.90
2022-09-28T10:46:40.603Z,99.90
2022-09-28T10:49:16.594Z,99.90
2022-09-28T10:51:50.177Z,99.90
2022-09-28T10:54:24.549Z,99.90
2022-09-28T10:56:53.022Z,99.90
2022-09-28T10:59:39.753Z,99.90
2022-09-28T11:02:34.739Z,99.90
2022-09-28T11:05:19.720Z,99.90
2022-09-28T11:07:47.905Z,99.90
2022-09-28T11:10:20.857Z,99.90
2022-09-28T11:12:49.566Z,99.90
2022-09-28T11:15:19.611Z,99.90
2022-09-28T11:17:48.391Z,99.90
2022-09-28T11:20:27.459Z,99.90
2022-09-28T11:22:58.254Z,99.90
2022-09-28T11:25:30.231Z,99.90
2022-09-28T11:27:59.039Z,99.90
2022-09-28T11:30:40.657Z,99.90
2022-09-28T11:33:27.307Z,99.90
2022-09-28T11:36:16.623Z,99.90
2022-09-28T11:38:47.484Z,99.90
2022-09-28T11:41:49.074Z,99.90
2022-09-28T11:44:44.851Z,99.90
2022-09-28T11:47:33.388Z,99.90
2022-09-28T11:50:02.932Z,99.90
2022-09-28T11:52:36.935Z,99.90
2022-09-28T11:55:17.251Z,99.90
2022-09-28T11:57:46.562Z,99.90
2022-09-28T12:00:14.997Z,99.90
2022-09-28T12:03:03.936Z,99.90
2022-09-28T12:05:33.651Z,99.90
2022-09-28T12:08:08.366Z,99.90
2022-09-28T12:10:57.138Z,99.90
2022-09-28T12:13:47.720Z,99.90
2022-09-28T12:16:45.174Z,99.90
2022-09-28T12:19:24.800Z,99.90
2022-09-28T12:21:55.001Z,99.90
2022-09-28T12:24:23.736Z,99.90
2022-09-28T12:27:00.352Z,99.90
2022-09-28T12:29:35.017Z,99.90
2022-09-28T12:32:21.974Z,99.90
2022-09-28T12:34:48.738Z,99.90
2022-09-28T12:37:21.764Z,99.90
2022-09-28T12:39:57.993Z,99.90
2022-09-28T12:42:44.342Z,99.90
2022-09-28T12:45:11.012Z,99.90
2022-09-28T12:47:49.547Z,99.90
2022-09-28T12:50:51.288Z,99.90
2022-09-28T12:53:26.450Z,99.90
2022-09-28T12:55:58.728Z,99.90
2022-09-28T12:58:43.879Z,99.90
2022-09-28T13:01:28.048Z,99.90
2022-09-28T13:04:01.808Z,99.90
2022-09-28T13:06:31.538Z,99.90
2022-09-28T13:09:02.851Z,99.90
2022-09-28T13:11:41.201Z,99.90
2022-09-28T13:14:17.157Z,99.90
2022-09-28T13:16:50.805Z,99.90
2022-09-28T13:19:24.137Z,99.90
2022-09-28T13:22:00.120Z,99.90
2022-09-28T13:24:33.346Z,99.90
2022-09-28T13:27:05.900Z,99.90
2022-09-28T13:29:34.970Z,99.90
2022-09-28T13:32:03.284Z,99.90
2022-09-28T13:34:33.684Z,99.90
2022-09-28T13:37:09.970Z,99.90
2022-09-28T13:39:38.060Z,99.90
2022-09-28T13:42:05.804Z,99.90
2022-09-28T13:44:54.326Z,99.90
2022-09-28T13:47:21.258Z,99.90
2022-09-28T13:49:55.406Z,99.90
2022-09-28T13:52:30.509Z,99.90
2022-09-28T13:55:12.969Z,99.90
2022-09-28T13:57:55.079Z,99.90
2022-09-28T14:00:40.679Z,99.90
2022-09-28T14:03:19.564Z,99.90
2022-09-28T14:05:47.021Z,99.90
2022-09-28T14:08:17.274Z,99.90
2022-09-28T14:10:44.000Z,99.70
2022-09-28T14:13:10.624Z,99.70
2022-09-28T14:15:37.342Z,99.70
2022-09-28T14:18:25.638Z,99.90
2022-09-28T14:20:58.265Z,99.90
2022-09-28T14:23:43.865Z,99.90
2022-09-28T14:26:41.615Z,99.90
2022-09-28T14:29:37.817Z,99.90
2022-09-28T14:32:04.462Z,99.90
2022-09-28T14:34:39.252Z,99.90
2022-09-28T14:37:37.034Z,99.90
2022-09-28T14:40:35.690Z,99.80
2022-09-28T14:43:24.760Z,99.90
2022-09-28T14:46:11.740Z,99.90
2022-09-28T14:48:44.687Z,99.90
2022-09-28T14:51:26.644Z,99.10
2022-09-28T14:53:54.678Z,97.90
2022-09-28T14:56:21.666Z,97.30
2022-09-28T14:58:53.341Z,97.00
2022-09-28T15:01:20.698Z,96.60
2022-09-28T15:03:49.382Z,94.70
2022-09-28T15:06:16.251Z,94.30
2022-09-28T15:08:42.996Z,93.80
2022-09-28T15:11:11.882Z,95.30
2022-09-28T15:13:40.760Z,97.50
2022-09-28T15:16:11.664Z,98.80
2022-09-28T15:18:44.971Z,99.70
2022-09-28T15:21:13.642Z,99.90
2022-09-28T15:23:41.948Z,99.90
2022-09-28T15:26:23.249Z,99.90
2022-09-28T15:28:50.051Z,99.90
2022-09-28T15:31:18.316Z,99.90
2022-09-28T15:34:03.965Z,99.90
2022-09-28T15:36:33.097Z,99.90
2022-09-28T15:39:04.940Z,99.90
2022-09-28T15:41:31.913Z,99.90
2022-09-28T15:44:08.467Z,99.90
2022-09-28T15:46:37.477Z,99.90
2022-09-28T15:49:04.794Z,99.90
2022-09-28T15:51:32.705Z,99.90
2022-09-28T15:54:02.857Z,99.90
2022-09-28T15:56:30.201Z,99.90
2022-09-28T15:59:17.050Z,99.90
2022-09-28T16:01:44.294Z,99.90
2022-09-28T16:04:29.800Z,99.90
2022-09-28T16:07:05.449Z,99.90
2022-09-28T16:09:34.630Z,99.90
2022-09-28T16:12:09.532Z,99.90
2022-09-28T16:14:36.156Z,99.90
2022-09-28T16:17:03.915Z,99.90
2022-09-28T16:19:35.738Z,99.90
2022-09-28T16:22:03.887Z,99.90
2022-09-28T16:24:34.543Z,99.90
2022-09-28T16:27:03.020Z,99.90
2022-09-28T16:29:40.486Z,99.90
2022-09-28T16:32:25.269Z,99.90
2022-09-28T16:35:13.468Z,99.90
2022-09-28T16:37:42.578Z,99.90
2022-09-28T16:40:09.672Z,99.90
2022-09-28T16:42:36.784Z,99.90
2022-09-28T16:45:05.072Z,99.90
2022-09-28T16:47:34.811Z,99.90
2022-09-28T16:50:03.905Z,99.90
2022-09-28T16:52:49.298Z,99.90
2022-09-28T16:55:38.774Z,99.90
2022-09-28T16:58:04.717Z,99.90
2022-09-28T17:00:32.547Z,99.90
2022-09-28T17:02:59.313Z,99.90
2022-09-28T17:05:26.143Z,99.90
2022-09-28T17:08:02.855Z,99.90
2022-09-28T17:10:55.760Z,99.90
2022-09-28T17:13:23.731Z,99.90
2022-09-28T17:15:50.538Z,99.90
2022-09-28T17:18:18.539Z,99.90
2022-09-28T17:20:48.374Z,99.90
2022-09-28T17:23:15.727Z,99.90
2022-09-28T17:25:42.557Z,99.90
2022-09-28T17:28:23.303Z,99.90
2022-09-28T17:30:50.001Z,99.90
2022-09-28T17:33:16.796Z,99.90
2022-09-28T17:35:44.248Z,99.90
2022-09-28T17:38:15.325Z,99.90
2022-09-28T17:40:43.226Z,99.90
2022-09-28T17:43:09.966Z,99.90
2022-09-28T17:45:40.969Z,99.90
2022-09-28T17:48:13.209Z,99.90
2022-09-28T17:50:44.386Z,99.90
2022-09-28T17:53:12.865Z,99.90
2022-09-28T17:55:39.751Z,99.90
2022-09-28T17:58:15.796Z,99.90
2022-09-28T18:00:42.920Z,99.90
2022-09-28T18:03:20.079Z,99.90
2022-09-28T18:05:48.928Z,99.90
2022-09-28T18:08:17.226Z,99.90
2022-09-28T18:10:43.952Z,99.90
2022-09-28T18:13:10.884Z,99.90
2022-09-28T18:15:37.639Z,99.90
2022-09-28T18:18:04.473Z,99.90
2022-09-28T18:20:31.470Z,99.90
2022-09-28T18:22:58.156Z,99.90
2022-09-28T18:25:24.978Z,99.90
2022-09-28T18:27:54.490Z,99.90
2022-09-28T18:30:21.308Z,99.90
2022-09-28T18:32:47.945Z,99.90
2022-09-28T18:35:14.748Z,99.90
2022-09-28T18:37:42.575Z,99.90
2022-09-28T18:40:10.116Z,99.90
2022-09-28T18:42:37.140Z,99.90
2022-09-28T18:45:05.733Z,99.90
2022-09-28T18:47:33.107Z,99.90
2022-09-28T18:49:59.807Z,99.90
2022-09-28T18:52:29.401Z,99.90
2022-09-28T18:54:56.092Z,99.90
2022-09-28T18:57:22.741Z,99.90
2022-09-28T18:59:49.646Z,99.90
2022-09-28T19:02:16.499Z,99.90
2022-09-28T19:04:43.335Z,99.90
2022-09-28T19:07:10.090Z,99.90
2022-09-28T19:09:36.895Z,99.90
2022-09-28T19:12:03.645Z,99.90
2022-09-28T19:14:30.589Z,99.90
2022-09-28T19:16:57.406Z,99.90
2022-09-28T19:19:24.252Z,99.90
2022-09-28T19:21:50.967Z,99.90
2022-09-28T19:24:18.448Z,99.90
2022-09-28T19:26:46.510Z,99.90
2022-09-28T19:29:13.954Z,99.90
2022-09-28T19:31:41.817Z,99.90
2022-09-28T19:34:11.792Z,99.90
2022-09-28T19:36:41.224Z,99.90
2022-09-28T19:39:07.959Z,99.90
2022-09-28T19:41:43.773Z,99.90
2022-09-28T19:44:11.184Z,99.90
2022-09-28T19:46:39.028Z,99.90
2022-09-28T19:49:07.465Z,99.90
2022-09-28T19:51:34.179Z,99.90
2022-09-28T19:54:01.334Z,99.90
2022-09-28T19:56:32.806Z,99.90
2022-09-28T19:59:00.568Z,99.90
2022-09-28T20:01:28.264Z,99.90
2022-09-28T20:03:56.016Z,99.90
2022-09-28T20:06:23.160Z,99.90
2022-09-28T20:08:50.358Z,99.90
2022-09-28T20:11:17.517Z,99.90
2022-09-28T20:13:44.545Z,99.90
2022-09-28T20:16:16.369Z,99.90
2022-09-28T20:18:44.435Z,99.90
2022-09-28T20:21:17.994Z,99.90
2022-09-28T20:23:47.954Z,99.90
2022-09-28T20:26:15.280Z,99.90
2022-09-28T20:28:42.914Z,99.90
2022-09-28T20:31:12.368Z,99.90
2022-09-28T20:33:39.387Z,99.90
2022-09-28T20:36:07.147Z,99.90
2022-09-28T20:38:34.913Z,99.90
2022-09-28T20:41:02.817Z,99.90
2022-09-28T20:43:34.444Z,99.90
2022-09-28T20:46:02.444Z,99.90
2022-09-28T20:48:29.979Z,99.90
2022-09-28T20:50:57.569Z,99.90
2022-09-28T20:53:24.706Z,99.90
2022-09-28T20:55:59.045Z,99.90
2022-09-28T20:58:26.378Z,99.90
2022-09-28T21:00:53.290Z,99.90
2022-09-28T21:03:20.160Z,99.90
2022-09-28T21:05:47.219Z,99.90
2022-09-28T21:08:14.350Z,99.90
2022-09-28T21:10:43.384Z,99.90
2022-09-28T21:13:11.213Z,99.90
2022-09-28T21:15:37.998Z,99.90
2022-09-28T21:18:04.792Z,99.90
2022-09-28T21:20:31.453Z,99.90
2022-09-28T21:22:58.180Z,99.90
2022-09-28T21:25:24.903Z,99.90
2022-09-28T21:27:51.989Z,99.90
2022-09-28T21:30:20.053Z,99.90
2022-09-28T21:32:46.834Z,99.90
2022-09-28T21:35:13.816Z,99.90
2022-09-28T21:37:40.567Z,99.90
2022-09-28T21:40:09.803Z,99.90
2022-09-28T21:42:36.681Z,99.90
2022-09-28T21:45:03.900Z,99.90
2022-09-28T21:47:30.694Z,99.90
2022-09-28T21:49:57.369Z,99.90
2022-09-28T21:52:24.108Z,99.90
2022-09-28T21:54:50.820Z,99.90
2022-09-28T21:57:18.941Z,99.90
2022-09-28T21:59:45.719Z,99.90
2022-09-28T22:02:12.451Z,99.90
2022-09-28T22:04:39.159Z,99.90
2022-09-28T22:07:05.865Z,99.90
2022-09-28T22:09:32.615Z,99.90
2022-09-28T22:11:59.482Z,99.90
2022-09-28T22:14:27.132Z,99.90
2022-09-28T22:16:54.043Z,99.90
2022-09-28T22:19:20.685Z,99.90
2022-09-28T22:21:47.846Z,99.90
2022-09-28T22:24:14.802Z,99.90
2022-09-28T22:26:41.545Z,99.90
2022-09-28T22:29:08.930Z,99.90
2022-09-28T22:31:36.882Z,99.90
2022-09-28T22:34:04.065Z,99.90
2022-09-28T22:36:31.041Z,99.90
2022-09-28T22:38:58.054Z,99.90
2022-09-28T22:41:25.044Z,99.90
2022-09-28T22:43:52.535Z,99.90
2022-09-28T22:46:20.685Z,99.90
2022-09-28T22:48:48.639Z,99.90
2022-09-28T22:51:15.770Z,99.90
2022-09-28T22:53:42.659Z,99.90
2022-09-28T22:56:14.649Z,99.90
2022-09-28T22:58:44.426Z,99.90
2022-09-28T23:01:11.101Z,99.90
2022-09-28T23:03:40.134Z,99.90
2022-09-28T23:06:07.140Z,99.90
2022-09-28T23:08:34.483Z,99.90
2022-09-28T23:11:01.371Z,99.90
2022-09-28T23:13:28.831Z,99.90
2022-09-28T23:16:00.016Z,99.90
2022-09-28T23:18:31.763Z,99.90
2022-09-28T23:20:59.668Z,99.90
2022-09-28T23:23:26.711Z,99.90
2022-09-28T23:25:53.819Z,99.90
2022-09-28T23:28:20.925Z,99.90
2022-09-28T23:30:47.980Z,99.90
2022-09-28T23:33:15.463Z,99.90
2022-09-28T23:35:42.356Z,99.90
2022-09-28T23:38:13.667Z,99.90
2022-09-28T23:40:41.166Z,99.90
2022-09-28T23:43:08.064Z,99.90
2022-09-28T23:45:34.853Z,99.90
2022-09-28T23:48:01.735Z,99.90
2022-09-28T23:50:28.641Z,99.90
2022-09-28T23:52:55.588Z,99.90
2022-09-28T23:55:22.820Z,99.90
2022-09-28T23:57:49.555Z,99.90
